sensor_id;sensor_type;location;lat;lon;timestamp;temperature;humidity
19552;DHT22;9921;47.186;9.778;2024-01-27T00:00:11;7.80;99.90
19552;DHT22;9921;47.186;9.778;2024-01-27T00:02:39;7.80;99.90
19552;DHT22;9921;47.186;9.778;2024-01-27T00:05:07;7.80;99.90
19552;DHT22;9921;47.186;9.778;2024-01-27T00:07:37;7.90;99.90
19552;DHT22;9921;47.186;9.778;2024-01-27T00:10:06;7.90;99.90
19552;DHT22;9921;47.186;9.778;2024-01-27T00:12:34;7.90;99.90
19552;DHT22;9921;47.186;9.778;2024-01-27T00:15:00;8.00;99.90
19552;DHT22;9921;47.186;9.778;2024-01-27T00:17:27;8.00;99.90
19552;DHT22;9921;47.186;9.778;2024-01-27T00:19:54;8.00;99.90
19552;DHT22;9921;47.186;9.778;2024-01-27T00:22:21;8.00;99.90
19552;DHT22;9921;47.186;9.778;2024-01-27T00:24:48;8.00;99.90
19552;DHT22;9921;47.186;9.778;2024-01-27T00:27:16;8.00;99.90
19552;DHT22;9921;47.186;9.778;2024-01-27T00:29:43;8.00;99.90
19552;DHT22;9921;47.186;9.778;2024-01-27T00:32:10;8.00;99.90
19552;DHT22;9921;47.186;9.778;2024-01-27T00:34:37;7.90;99.90
19552;DHT22;9921;47.186;9.778;2024-01-27T00:37:04;7.90;99.90
19552;DHT22;9921;47.186;9.778;2024-01-27T00:39:31;7.90;99.90
19552;DHT22;9921;47.186;9.778;2024-01-27T00:41:58;7.80;99.90
19552;DHT22;9921;47.186;9.778;2024-01-27T00:44:26;7.80;99.90
19552;DHT22;9921;47.186;9.778;2024-01-27T00:46:53;7.70;99.90
19552;DHT22;9921;47.186;9.778;2024-01-27T00:49:20;7.70;99.90
19552;DHT22;9921;47.186;9.778;2024-01-27T00:51:47;7.70;99.90
19552;DHT22;9921;47.186;9.778;2024-01-27T00:54:14;7.70;99.90
19552;DHT22;9921;47.186;9.778;2024-01-27T00:56:40;7.70;99.90
19552;DHT22;9921;47.186;9.778;2024-01-27T00:59:07;7.70;99.90
19552;DHT22;9921;47.186;9.778;2024-01-27T01:01:36;7.70;99.90
19552;DHT22;9921;47.186;9.778;2024-01-27T01:04:03;7.70;99.90
19552;DHT22;9921;47.186;9.778;2024-01-27T01:06:29;7.60;99.90
19552;DHT22;9921;47.186;9.778;2024-01-27T01:08:56;7.60;99.90
19552;DHT22;9921;47.186;9.778;2024-01-27T01:11:23;7.60;99.90
19552;DHT22;9921;47.186;9.778;2024-01-27T01:13:50;7.50;99.90
19552;DHT22;9921;47.186;9.778;2024-01-27T01:16:19;7.50;99.90
19552;DHT22;9921;47.186;9.778;2024-01-27T01:18:48;7.50;99.90
19552;DHT22;9921;47.186;9.778;2024-01-27T01:21:15;7.50;99.90
19552;DHT22;9921;47.186;9.778;2024-01-27T01:23:41;7.50;99.90
19552;DHT22;9921;47.186;9.778;2024-01-27T01:26:08;7.50;99.90
19552;DHT22;9921;47.186;9.778;2024-01-27T01:28:35;7.50;99.90
19552;DHT22;9921;47.186;9.778;2024-01-27T01:31:02;7.50;99.90
19552;DHT22;9921;47.186;9.778;2024-01-27T01:33:29;7.40;99.90
19552;DHT22;9921;47.186;9.778;2024-01-27T01:35:57;7.40;99.90
19552;DHT22;9921;47.186;9.778;2024-01-27T01:38:24;7.30;99.90
19552;DHT22;9921;47.186;9.778;2024-01-27T01:40:51;7.30;99.90
19552;DHT22;9921;47.186;9.778;2024-01-27T01:43:20;7.20;99.90
19552;DHT22;9921;47.186;9.778;2024-01-27T01:45:47;7.20;99.90
19552;DHT22;9921;47.186;9.778;2024-01-27T01:48:16;7.10;99.90
19552;DHT22;9921;47.186;9.778;2024-01-27T01:50:43;7.10;99.90
19552;DHT22;9921;47.186;9.778;2024-01-27T01:53:11;7.10;99.90
19552;DHT22;9921;47.186;9.778;2024-01-27T01:55:39;7.10;99.90
19552;DHT22;9921;47.186;9.778;2024-01-27T01:58:06;7.00;99.90
19552;DHT22;9921;47.186;9.778;2024-01-27T02:00:33;7.00;99.90
19552;DHT22;9921;47.186;9.778;2024-01-27T02:03:00;7.00;99.90
19552;DHT22;9921;47.186;9.778;2024-01-27T02:05:26;7.00;99.90
19552;DHT22;9921;47.186;9.778;2024-01-27T02:07:53;7.00;99.90
19552;DHT22;9921;47.186;9.778;2024-01-27T02:10:23;6.90;99.90
19552;DHT22;9921;47.186;9.778;2024-01-27T02:12:50;7.00;99.90
19552;DHT22;9921;47.186;9.778;2024-01-27T02:15:16;7.00;99.90
19552;DHT22;9921;47.186;9.778;2024-01-27T02:17:44;6.90;99.90
19552;DHT22;9921;47.186;9.778;2024-01-27T02:20:11;6.80;99.90
19552;DHT22;9921;47.186;9.778;2024-01-27T02:22:38;6.80;99.90
19552;DHT22;9921;47.186;9.778;2024-01-27T02:25:07;6.90;99.90
19552;DHT22;9921;47.186;9.778;2024-01-27T02:27:34;6.80;99.90
19552;DHT22;9921;47.186;9.778;2024-01-27T02:30:00;6.80;99.90
19552;DHT22;9921;47.186;9.778;2024-01-27T02:32:27;6.80;99.90
19552;DHT22;9921;47.186;9.778;2024-01-27T02:34:54;6.80;99.90
19552;DHT22;9921;47.186;9.778;2024-01-27T02:37:23;6.70;99.90
19552;DHT22;9921;47.186;9.778;2024-01-27T02:39:50;6.70;99.90
19552;DHT22;9921;47.186;9.778;2024-01-27T02:42:18;6.70;99.90
19552;DHT22;9921;47.186;9.778;2024-01-27T02:44:45;6.70;99.90
19552;DHT22;9921;47.186;9.778;2024-01-27T02:47:11;6.70;99.90
19552;DHT22;9921;47.186;9.778;2024-01-27T02:49:38;6.70;99.90
19552;DHT22;9921;47.186;9.778;2024-01-27T02:52:06;6.70;99.90
19552;DHT22;9921;47.186;9.778;2024-01-27T02:54:34;6.70;99.90
19552;DHT22;9921;47.186;9.778;2024-01-27T02:57:01;6.60;99.90
19552;DHT22;9921;47.186;9.778;2024-01-27T02:59:29;6.60;99.90
19552;DHT22;9921;47.186;9.778;2024-01-27T03:01:56;6.50;99.90
19552;DHT22;9921;47.186;9.778;2024-01-27T03:04:23;6.60;99.90
19552;DHT22;9921;47.186;9.778;2024-01-27T03:06:50;6.60;99.90
19552;DHT22;9921;47.186;9.778;2024-01-27T03:09:17;6.50;99.90
19552;DHT22;9921;47.186;9.778;2024-01-27T03:11:44;6.50;99.90
19552;DHT22;9921;47.186;9.778;2024-01-27T03:14:11;6.50;99.90
19552;DHT22;9921;47.186;9.778;2024-01-27T03:16:39;6.50;99.90
19552;DHT22;9921;47.186;9.778;2024-01-27T03:19:06;6.60;99.90
19552;DHT22;9921;47.186;9.778;2024-01-27T03:21:33;6.50;99.90
19552;DHT22;9921;47.186;9.778;2024-01-27T03:24:00;6.50;99.90
19552;DHT22;9921;47.186;9.778;2024-01-27T03:26:27;6.50;99.90
19552;DHT22;9921;47.186;9.778;2024-01-27T03:28:54;6.50;99.90
19552;DHT22;9921;47.186;9.778;2024-01-27T03:31:20;6.40;99.90
19552;DHT22;9921;47.186;9.778;2024-01-27T03:33:48;6.40;99.90
19552;DHT22;9921;47.186;9.778;2024-01-27T03:36:15;6.40;99.90
19552;DHT22;9921;47.186;9.778;2024-01-27T03:38:43;6.40;99.90
19552;DHT22;9921;47.186;9.778;2024-01-27T03:41:10;6.40;99.90
19552;DHT22;9921;47.186;9.778;2024-01-27T03:43:36;6.40;99.90
19552;DHT22;9921;47.186;9.778;2024-01-27T03:46:02;6.40;99.90
19552;DHT22;9921;47.186;9.778;2024-01-27T03:48:29;6.40;99.90
19552;DHT22;9921;47.186;9.778;2024-01-27T03:50:56;6.40;99.90
19552;DHT22;9921;47.186;9.778;2024-01-27T03:53:23;6.40;99.90
19552;DHT22;9921;47.186;9.778;2024-01-27T03:55:50;6.40;99.90
19552;DHT22;9921;47.186;9.778;2024-01-27T03:58:17;6.50;99.90
19552;DHT22;9921;47.186;9.778;2024-01-27T04:00:44;6.50;99.90
19552;DHT22;9921;47.186;9.778;2024-01-27T04:03:11;6.40;99.90
19552;DHT22;9921;47.186;9.778;2024-01-27T04:05:38;6.40;99.90
19552;DHT22;9921;47.186;9.778;2024-01-27T04:08:06;6.40;99.90
19552;DHT22;9921;47.186;9.778;2024-01-27T04:10:36;6.30;99.90
19552;DHT22;9921;47.186;9.778;2024-01-27T04:13:06;6.30;99.90
19552;DHT22;9921;47.186;9.778;2024-01-27T04:15:33;6.30;99.90
19552;DHT22;9921;47.186;9.778;2024-01-27T04:18:04;6.30;99.90
19552;DHT22;9921;47.186;9.778;2024-01-27T04:20:31;6.30;99.90
19552;DHT22;9921;47.186;9.778;2024-01-27T04:22:58;6.30;99.90
19552;DHT22;9921;47.186;9.778;2024-01-27T04:25:26;6.30;99.90
19552;DHT22;9921;47.186;9.778;2024-01-27T04:27:53;6.40;99.90
19552;DHT22;9921;47.186;9.778;2024-01-27T04:30:20;6.40;99.90
19552;DHT22;9921;47.186;9.778;2024-01-27T04:32:47;6.40;99.90
19552;DHT22;9921;47.186;9.778;2024-01-27T04:35:14;6.40;99.90
19552;DHT22;9921;47.186;9.778;2024-01-27T04:37:42;6.40;99.90
19552;DHT22;9921;47.186;9.778;2024-01-27T04:40:10;6.40;99.90
19552;DHT22;9921;47.186;9.778;2024-01-27T04:42:39;6.50;99.90
19552;DHT22;9921;47.186;9.778;2024-01-27T04:45:07;6.40;99.90
19552;DHT22;9921;47.186;9.778;2024-01-27T04:47:34;6.40;99.90
19552;DHT22;9921;47.186;9.778;2024-01-27T04:50:00;6.40;99.90
19552;DHT22;9921;47.186;9.778;2024-01-27T04:52:28;6.40;99.90
19552;DHT22;9921;47.186;9.778;2024-01-27T04:54:55;6.50;99.90
19552;DHT22;9921;47.186;9.778;2024-01-27T04:57:22;6.50;99.90
19552;DHT22;9921;47.186;9.778;2024-01-27T04:59:51;6.50;99.90
19552;DHT22;9921;47.186;9.778;2024-01-27T05:02:18;6.40;99.90
19552;DHT22;9921;47.186;9.778;2024-01-27T05:04:44;6.40;99.90
19552;DHT22;9921;47.186;9.778;2024-01-27T05:07:11;6.30;99.90
19552;DHT22;9921;47.186;9.778;2024-01-27T05:09:38;6.30;99.90
19552;DHT22;9921;47.186;9.778;2024-01-27T05:12:08;6.20;99.90
19552;DHT22;9921;47.186;9.778;2024-01-27T05:14:35;6.20;99.90
19552;DHT22;9921;47.186;9.778;2024-01-27T05:17:03;6.10;99.90
19552;DHT22;9921;47.186;9.778;2024-01-27T05:19:30;6.10;99.90
19552;DHT22;9921;47.186;9.778;2024-01-27T05:21:57;6.20;99.90
19552;DHT22;9921;47.186;9.778;2024-01-27T05:24:24;6.10;99.90
19552;DHT22;9921;47.186;9.778;2024-01-27T05:26:50;6.00;99.90
19552;DHT22;9921;47.186;9.778;2024-01-27T05:29:17;6.00;99.90
19552;DHT22;9921;47.186;9.778;2024-01-27T05:31:44;6.00;99.90
19552;DHT22;9921;47.186;9.778;2024-01-27T05:34:12;5.90;99.90
19552;DHT22;9921;47.186;9.778;2024-01-27T05:36:39;5.90;99.90
19552;DHT22;9921;47.186;9.778;2024-01-27T05:39:06;6.00;99.90
19552;DHT22;9921;47.186;9.778;2024-01-27T05:41:34;6.00;99.90
19552;DHT22;9921;47.186;9.778;2024-01-27T05:44:01;6.00;99.90
19552;DHT22;9921;47.186;9.778;2024-01-27T05:46:28;5.90;99.90
19552;DHT22;9921;47.186;9.778;2024-01-27T05:48:55;5.90;99.90
19552;DHT22;9921;47.186;9.778;2024-01-27T05:51:28;5.90;99.90
19552;DHT22;9921;47.186;9.778;2024-01-27T05:53:55;5.90;99.90
19552;DHT22;9921;47.186;9.778;2024-01-27T05:56:22;5.90;99.90
19552;DHT22;9921;47.186;9.778;2024-01-27T05:58:49;5.80;99.90
19552;DHT22;9921;47.186;9.778;2024-01-27T06:01:17;5.80;99.90
19552;DHT22;9921;47.186;9.778;2024-01-27T06:03:44;5.70;99.90
19552;DHT22;9921;47.186;9.778;2024-01-27T06:06:11;5.60;99.90
19552;DHT22;9921;47.186;9.778;2024-01-27T06:08:41;5.40;99.90
19552;DHT22;9921;47.186;9.778;2024-01-27T06:11:08;5.40;99.90
19552;DHT22;9921;47.186;9.778;2024-01-27T06:13:35;5.30;99.90
19552;DHT22;9921;47.186;9.778;2024-01-27T06:16:06;5.20;99.90
19552;DHT22;9921;47.186;9.778;2024-01-27T06:18:34;5.20;99.90
19552;DHT22;9921;47.186;9.778;2024-01-27T06:21:01;5.10;99.90
19552;DHT22;9921;47.186;9.778;2024-01-27T06:23:28;5.10;99.90
19552;DHT22;9921;47.186;9.778;2024-01-27T06:25:56;5.10;99.90
19552;DHT22;9921;47.186;9.778;2024-01-27T06:28:23;5.10;99.90
19552;DHT22;9921;47.186;9.778;2024-01-27T06:30:50;5.00;99.90
19552;DHT22;9921;47.186;9.778;2024-01-27T06:33:17;5.10;99.90
19552;DHT22;9921;47.186;9.778;2024-01-27T06:35:44;5.10;99.90
19552;DHT22;9921;47.186;9.778;2024-01-27T06:38:11;5.10;99.90
19552;DHT22;9921;47.186;9.778;2024-01-27T06:40:38;5.10;99.90
19552;DHT22;9921;47.186;9.778;2024-01-27T06:43:06;5.10;99.90
19552;DHT22;9921;47.186;9.778;2024-01-27T06:45:33;5.00;99.90
19552;DHT22;9921;47.186;9.778;2024-01-27T06:48:00;5.00;99.90
19552;DHT22;9921;47.186;9.778;2024-01-27T06:50:26;4.90;99.90
19552;DHT22;9921;47.186;9.778;2024-01-27T06:52:53;4.70;99.90
19552;DHT22;9921;47.186;9.778;2024-01-27T06:55:20;4.60;99.90
19552;DHT22;9921;47.186;9.778;2024-01-27T06:57:47;4.50;99.90
19552;DHT22;9921;47.186;9.778;2024-01-27T07:00:16;4.50;99.90
19552;DHT22;9921;47.186;9.778;2024-01-27T07:02:43;4.40;99.90
19552;DHT22;9921;47.186;9.778;2024-01-27T07:05:10;4.40;99.90
19552;DHT22;9921;47.186;9.778;2024-01-27T07:07:38;4.40;99.90
19552;DHT22;9921;47.186;9.778;2024-01-27T07:10:06;4.40;99.90
19552;DHT22;9921;47.186;9.778;2024-01-27T07:12:34;4.30;99.90
19552;DHT22;9921;47.186;9.778;2024-01-27T07:15:00;4.30;99.90
19552;DHT22;9921;47.186;9.778;2024-01-27T07:17:29;4.20;99.90
19552;DHT22;9921;47.186;9.778;2024-01-27T07:19:56;4.20;99.90
19552;DHT22;9921;47.186;9.778;2024-01-27T07:22:23;4.20;99.90
19552;DHT22;9921;47.186;9.778;2024-01-27T07:24:50;4.20;99.90
19552;DHT22;9921;47.186;9.778;2024-01-27T07:27:17;4.20;99.90
19552;DHT22;9921;47.186;9.778;2024-01-27T07:29:44;4.20;99.90
19552;DHT22;9921;47.186;9.778;2024-01-27T07:32:11;4.10;99.90
19552;DHT22;9921;47.186;9.778;2024-01-27T07:34:42;4.10;99.90
19552;DHT22;9921;47.186;9.778;2024-01-27T07:37:09;4.00;99.90
19552;DHT22;9921;47.186;9.778;2024-01-27T07:39:36;4.00;99.90
19552;DHT22;9921;47.186;9.778;2024-01-27T07:42:03;3.90;99.90
19552;DHT22;9921;47.186;9.778;2024-01-27T07:44:30;4.00;99.90
19552;DHT22;9921;47.186;9.778;2024-01-27T07:46:57;4.00;99.90
19552;DHT22;9921;47.186;9.778;2024-01-27T07:49:24;4.00;99.90
19552;DHT22;9921;47.186;9.778;2024-01-27T07:51:52;3.90;99.90
19552;DHT22;9921;47.186;9.778;2024-01-27T07:54:19;3.90;99.90
19552;DHT22;9921;47.186;9.778;2024-01-27T07:56:47;3.90;99.90
19552;DHT22;9921;47.186;9.778;2024-01-27T07:59:14;3.90;99.90
19552;DHT22;9921;47.186;9.778;2024-01-27T08:01:41;4.00;99.90
19552;DHT22;9921;47.186;9.778;2024-01-27T08:04:08;4.00;99.90
19552;DHT22;9921;47.186;9.778;2024-01-27T08:06:46;4.00;99.90
19552;DHT22;9921;47.186;9.778;2024-01-27T08:09:15;4.00;99.90
19552;DHT22;9921;47.186;9.778;2024-01-27T08:11:42;4.00;99.90
19552;DHT22;9921;47.186;9.778;2024-01-27T08:14:09;4.10;99.90
19552;DHT22;9921;47.186;9.778;2024-01-27T08:16:36;4.10;99.90
19552;DHT22;9921;47.186;9.778;2024-01-27T08:19:03;4.20;99.90
19552;DHT22;9921;47.186;9.778;2024-01-27T08:21:30;4.40;99.90
19552;DHT22;9921;47.186;9.778;2024-01-27T08:23:57;4.60;99.90
19552;DHT22;9921;47.186;9.778;2024-01-27T08:26:25;4.80;99.90
19552;DHT22;9921;47.186;9.778;2024-01-27T08:28:52;5.20;99.90
19552;DHT22;9921;47.186;9.778;2024-01-27T08:31:20;5.80;99.90
19552;DHT22;9921;47.186;9.778;2024-01-27T08:33:46;6.50;99.90
19552;DHT22;9921;47.186;9.778;2024-01-27T08:36:14;7.20;99.90
19552;DHT22;9921;47.186;9.778;2024-01-27T08:38:40;7.60;99.90
19552;DHT22;9921;47.186;9.778;2024-01-27T08:41:08;8.30;99.90
19552;DHT22;9921;47.186;9.778;2024-01-27T08:43:36;9.10;99.90
19552;DHT22;9921;47.186;9.778;2024-01-27T08:46:03;9.90;99.90
19552;DHT22;9921;47.186;9.778;2024-01-27T08:48:30;10.60;99.90
19552;DHT22;9921;47.186;9.778;2024-01-27T08:50:57;10.80;99.90
19552;DHT22;9921;47.186;9.778;2024-01-27T08:53:23;10.40;99.90
19552;DHT22;9921;47.186;9.778;2024-01-27T08:55:50;10.20;99.90
19552;DHT22;9921;47.186;9.778;2024-01-27T08:58:17;10.00;99.90
19552;DHT22;9921;47.186;9.778;2024-01-27T09:00:45;9.70;99.90
19552;DHT22;9921;47.186;9.778;2024-01-27T09:03:12;9.30;99.90
19552;DHT22;9921;47.186;9.778;2024-01-27T09:05:39;9.00;99.90
19552;DHT22;9921;47.186;9.778;2024-01-27T09:08:09;8.60;99.90
19552;DHT22;9921;47.186;9.778;2024-01-27T09:10:36;8.30;99.90
19552;DHT22;9921;47.186;9.778;2024-01-27T09:13:03;8.00;99.90
19552;DHT22;9921;47.186;9.778;2024-01-27T09:15:30;7.70;99.90
19552;DHT22;9921;47.186;9.778;2024-01-27T09:17:58;7.50;99.90
19552;DHT22;9921;47.186;9.778;2024-01-27T09:20:25;7.40;99.90
19552;DHT22;9921;47.186;9.778;2024-01-27T09:22:52;7.40;99.90
19552;DHT22;9921;47.186;9.778;2024-01-27T09:25:19;7.60;99.90
19552;DHT22;9921;47.186;9.778;2024-01-27T09:27:46;7.80;99.90
19552;DHT22;9921;47.186;9.778;2024-01-27T09:30:13;8.10;99.90
19552;DHT22;9921;47.186;9.778;2024-01-27T09:32:40;8.30;99.90
19552;DHT22;9921;47.186;9.778;2024-01-27T09:35:08;8.50;99.90
19552;DHT22;9921;47.186;9.778;2024-01-27T09:37:35;8.60;99.90
19552;DHT22;9921;47.186;9.778;2024-01-27T09:40:03;8.50;99.90
19552;DHT22;9921;47.186;9.778;2024-01-27T09:42:33;8.50;99.90
19552;DHT22;9921;47.186;9.778;2024-01-27T09:45:02;8.50;99.90
19552;DHT22;9921;47.186;9.778;2024-01-27T09:47:29;8.60;99.90
19552;DHT22;9921;47.186;9.778;2024-01-27T09:49:56;8.60;99.90
19552;DHT22;9921;47.186;9.778;2024-01-27T09:52:25;8.80;99.90
19552;DHT22;9921;47.186;9.778;2024-01-27T09:54:52;8.90;99.90
19552;DHT22;9921;47.186;9.778;2024-01-27T09:57:19;9.10;99.90
19552;DHT22;9921;47.186;9.778;2024-01-27T09:59:47;9.20;99.90
19552;DHT22;9921;47.186;9.778;2024-01-27T10:02:17;9.20;99.90
19552;DHT22;9921;47.186;9.778;2024-01-27T10:04:48;9.10;99.90
19552;DHT22;9921;47.186;9.778;2024-01-27T10:07:15;9.20;99.90
19552;DHT22;9921;47.186;9.778;2024-01-27T10:09:43;9.40;99.90
19552;DHT22;9921;47.186;9.778;2024-01-27T10:12:12;9.60;99.90
19552;DHT22;9921;47.186;9.778;2024-01-27T10:14:41;9.80;99.90
19552;DHT22;9921;47.186;9.778;2024-01-27T10:17:10;10.10;99.90
19552;DHT22;9921;47.186;9.778;2024-01-27T10:19:37;10.20;99.90
19552;DHT22;9921;47.186;9.778;2024-01-27T10:22:07;10.20;99.90
19552;DHT22;9921;47.186;9.778;2024-01-27T10:24:34;10.30;99.90
19552;DHT22;9921;47.186;9.778;2024-01-27T10:27:03;10.40;99.90
19552;DHT22;9921;47.186;9.778;2024-01-27T10:29:30;10.40;99.90
19552;DHT22;9921;47.186;9.778;2024-01-27T10:32:07;10.30;99.90
19552;DHT22;9921;47.186;9.778;2024-01-27T10:34:34;10.00;99.90
19552;DHT22;9921;47.186;9.778;2024-01-27T10:37:01;9.80;99.90
19552;DHT22;9921;47.186;9.778;2024-01-27T10:39:28;9.60;99.90
19552;DHT22;9921;47.186;9.778;2024-01-27T10:41:54;9.50;99.90
19552;DHT22;9921;47.186;9.778;2024-01-27T10:44:26;9.40;99.90
19552;DHT22;9921;47.186;9.778;2024-01-27T10:46:56;9.30;99.90
19552;DHT22;9921;47.186;9.778;2024-01-27T10:49:28;9.20;99.90
19552;DHT22;9921;47.186;9.778;2024-01-27T10:51:56;9.20;99.90
19552;DHT22;9921;47.186;9.778;2024-01-27T10:54:25;9.10;99.90
19552;DHT22;9921;47.186;9.778;2024-01-27T10:56:54;9.00;99.90
19552;DHT22;9921;47.186;9.778;2024-01-27T10:59:26;8.90;99.90
19552;DHT22;9921;47.186;9.778;2024-01-27T11:01:54;8.80;99.90
19552;DHT22;9921;47.186;9.778;2024-01-27T11:04:21;8.80;99.90
19552;DHT22;9921;47.186;9.778;2024-01-27T11:06:48;8.80;99.90
19552;DHT22;9921;47.186;9.778;2024-01-27T11:09:16;8.80;99.90
19552;DHT22;9921;47.186;9.778;2024-01-27T11:11:45;8.80;99.90
19552;DHT22;9921;47.186;9.778;2024-01-27T11:14:12;8.90;99.90
19552;DHT22;9921;47.186;9.778;2024-01-27T11:16:41;8.90;99.90
19552;DHT22;9921;47.186;9.778;2024-01-27T11:19:12;9.00;99.90
19552;DHT22;9921;47.186;9.778;2024-01-27T11:21:39;9.10;99.90
19552;DHT22;9921;47.186;9.778;2024-01-27T11:24:16;9.20;99.90
19552;DHT22;9921;47.186;9.778;2024-01-27T11:26:43;9.40;99.90
19552;DHT22;9921;47.186;9.778;2024-01-27T11:29:11;9.40;99.90
19552;DHT22;9921;47.186;9.778;2024-01-27T11:31:46;9.50;99.90
19552;DHT22;9921;47.186;9.778;2024-01-27T11:34:14;9.50;99.90
19552;DHT22;9921;47.186;9.778;2024-01-27T11:36:43;9.50;99.90
19552;DHT22;9921;47.186;9.778;2024-01-27T11:39:26;9.60;99.90
19552;DHT22;9921;47.186;9.778;2024-01-27T11:42:03;9.60;99.90
19552;DHT22;9921;47.186;9.778;2024-01-27T11:44:30;9.60;99.90
19552;DHT22;9921;47.186;9.778;2024-01-27T11:46:58;9.60;99.90
19552;DHT22;9921;47.186;9.778;2024-01-27T11:49:27;9.60;99.90
19552;DHT22;9921;47.186;9.778;2024-01-27T11:51:54;9.60;99.90
19552;DHT22;9921;47.186;9.778;2024-01-27T11:54:21;9.60;99.90
19552;DHT22;9921;47.186;9.778;2024-01-27T11:56:48;9.60;99.90
19552;DHT22;9921;47.186;9.778;2024-01-27T11:59:15;9.60;99.90
19552;DHT22;9921;47.186;9.778;2024-01-27T12:01:40;9.70;99.90
19552;DHT22;9921;47.186;9.778;2024-01-27T12:04:09;9.70;99.90
19552;DHT22;9921;47.186;9.778;2024-01-27T12:06:36;9.80;99.90
19552;DHT22;9921;47.186;9.778;2024-01-27T12:09:04;9.80;99.90
19552;DHT22;9921;47.186;9.778;2024-01-27T12:11:38;9.90;99.90
19552;DHT22;9921;47.186;9.778;2024-01-27T12:14:05;9.90;99.90
19552;DHT22;9921;47.186;9.778;2024-01-27T12:16:32;9.90;99.90
19552;DHT22;9921;47.186;9.778;2024-01-27T12:18:59;10.00;99.90
19552;DHT22;9921;47.186;9.778;2024-01-27T12:21:27;10.00;99.90
19552;DHT22;9921;47.186;9.778;2024-01-27T12:23:56;10.00;99.90
19552;DHT22;9921;47.186;9.778;2024-01-27T12:26:23;10.10;99.90
19552;DHT22;9921;47.186;9.778;2024-01-27T12:28:51;10.00;99.90
19552;DHT22;9921;47.186;9.778;2024-01-27T12:31:18;10.10;99.90
19552;DHT22;9921;47.186;9.778;2024-01-27T12:33:48;10.10;99.90
19552;DHT22;9921;47.186;9.778;2024-01-27T12:36:17;10.20;99.90
19552;DHT22;9921;47.186;9.778;2024-01-27T12:38:52;10.30;99.90
19552;DHT22;9921;47.186;9.778;2024-01-27T12:41:19;10.40;99.90
19552;DHT22;9921;47.186;9.778;2024-01-27T12:43:46;10.40;99.90
19552;DHT22;9921;47.186;9.778;2024-01-27T12:46:13;10.50;99.90
19552;DHT22;9921;47.186;9.778;2024-01-27T12:48:40;10.60;99.90
19552;DHT22;9921;47.186;9.778;2024-01-27T12:51:10;10.70;99.90
19552;DHT22;9921;47.186;9.778;2024-01-27T12:53:38;10.70;99.90
19552;DHT22;9921;47.186;9.778;2024-01-27T12:56:10;10.80;99.90
19552;DHT22;9921;47.186;9.778;2024-01-27T12:58:38;10.90;99.90
19552;DHT22;9921;47.186;9.778;2024-01-27T13:01:05;10.90;99.90
19552;DHT22;9921;47.186;9.778;2024-01-27T13:03:32;10.90;99.90
19552;DHT22;9921;47.186;9.778;2024-01-27T13:06:00;11.00;99.90
19552;DHT22;9921;47.186;9.778;2024-01-27T13:08:27;11.00;99.90
19552;DHT22;9921;47.186;9.778;2024-01-27T13:10:54;11.00;99.90
19552;DHT22;9921;47.186;9.778;2024-01-27T13:13:22;11.00;99.90
19552;DHT22;9921;47.186;9.778;2024-01-27T13:15:49;11.00;99.90
19552;DHT22;9921;47.186;9.778;2024-01-27T13:18:16;10.90;99.90
19552;DHT22;9921;47.186;9.778;2024-01-27T13:20:44;11.00;99.90
19552;DHT22;9921;47.186;9.778;2024-01-27T13:23:11;11.00;99.90
19552;DHT22;9921;47.186;9.778;2024-01-27T13:25:38;11.10;99.90
19552;DHT22;9921;47.186;9.778;2024-01-27T13:28:05;11.10;99.90
19552;DHT22;9921;47.186;9.778;2024-01-27T13:30:34;11.10;99.90
19552;DHT22;9921;47.186;9.778;2024-01-27T13:33:01;11.10;99.90
19552;DHT22;9921;47.186;9.778;2024-01-27T13:35:28;11.10;99.90
19552;DHT22;9921;47.186;9.778;2024-01-27T13:37:55;11.20;99.90
19552;DHT22;9921;47.186;9.778;2024-01-27T13:40:21;11.10;99.90
19552;DHT22;9921;47.186;9.778;2024-01-27T13:42:49;11.00;99.90
19552;DHT22;9921;47.186;9.778;2024-01-27T13:45:15;11.00;99.90
19552;DHT22;9921;47.186;9.778;2024-01-27T13:47:44;11.00;99.90
19552;DHT22;9921;47.186;9.778;2024-01-27T13:50:12;11.00;99.90
19552;DHT22;9921;47.186;9.778;2024-01-27T13:52:39;10.90;99.90
19552;DHT22;9921;47.186;9.778;2024-01-27T13:55:07;10.90;99.90
19552;DHT22;9921;47.186;9.778;2024-01-27T13:57:34;10.90;99.90
19552;DHT22;9921;47.186;9.778;2024-01-27T14:00:02;10.90;99.90
19552;DHT22;9921;47.186;9.778;2024-01-27T14:02:29;10.80;99.90
19552;DHT22;9921;47.186;9.778;2024-01-27T14:04:57;10.90;99.90
19552;DHT22;9921;47.186;9.778;2024-01-27T14:07:24;10.90;99.90
19552;DHT22;9921;47.186;9.778;2024-01-27T14:09:51;10.80;99.90
19552;DHT22;9921;47.186;9.778;2024-01-27T14:12:18;10.80;99.90
19552;DHT22;9921;47.186;9.778;2024-01-27T14:14:45;10.80;99.90
19552;DHT22;9921;47.186;9.778;2024-01-27T14:17:12;10.70;99.90
19552;DHT22;9921;47.186;9.778;2024-01-27T14:19:39;10.70;99.90
19552;DHT22;9921;47.186;9.778;2024-01-27T14:22:07;10.70;99.90
19552;DHT22;9921;47.186;9.778;2024-01-27T14:24:36;10.60;99.90
19552;DHT22;9921;47.186;9.778;2024-01-27T14:27:05;10.60;99.90
19552;DHT22;9921;47.186;9.778;2024-01-27T14:29:33;10.60;99.90
19552;DHT22;9921;47.186;9.778;2024-01-27T14:32:03;10.60;99.90
19552;DHT22;9921;47.186;9.778;2024-01-27T14:34:31;10.50;99.90
19552;DHT22;9921;47.186;9.778;2024-01-27T14:36:58;10.40;99.90
19552;DHT22;9921;47.186;9.778;2024-01-27T14:39:28;10.20;99.90
19552;DHT22;9921;47.186;9.778;2024-01-27T14:41:56;10.20;99.90
19552;DHT22;9921;47.186;9.778;2024-01-27T14:44:23;10.10;99.90
19552;DHT22;9921;47.186;9.778;2024-01-27T14:46:50;9.90;99.90
19552;DHT22;9921;47.186;9.778;2024-01-27T14:49:17;9.80;99.90
19552;DHT22;9921;47.186;9.778;2024-01-27T14:51:44;9.70;99.90
19552;DHT22;9921;47.186;9.778;2024-01-27T14:54:10;9.60;99.90
19552;DHT22;9921;47.186;9.778;2024-01-27T14:56:39;9.50;99.90
19552;DHT22;9921;47.186;9.778;2024-01-27T14:59:06;9.30;99.90
19552;DHT22;9921;47.186;9.778;2024-01-27T15:01:33;9.20;99.90
19552;DHT22;9921;47.186;9.778;2024-01-27T15:04:00;9.00;99.90
19552;DHT22;9921;47.186;9.778;2024-01-27T15:06:27;8.80;99.90
19552;DHT22;9921;47.186;9.778;2024-01-27T15:08:54;8.70;99.90
19552;DHT22;9921;47.186;9.778;2024-01-27T15:11:21;8.60;99.90
19552;DHT22;9921;47.186;9.778;2024-01-27T15:13:49;8.50;99.90
19552;DHT22;9921;47.186;9.778;2024-01-27T15:16:16;8.40;99.90
19552;DHT22;9921;47.186;9.778;2024-01-27T15:18:43;8.40;99.90
19552;DHT22;9921;47.186;9.778;2024-01-27T15:21:10;8.40;99.90
19552;DHT22;9921;47.186;9.778;2024-01-27T15:23:37;8.30;99.90
19552;DHT22;9921;47.186;9.778;2024-01-27T15:26:04;8.30;99.90
19552;DHT22;9921;47.186;9.778;2024-01-27T15:28:32;8.30;99.90
19552;DHT22;9921;47.186;9.778;2024-01-27T15:31:00;8.30;99.90
19552;DHT22;9921;47.186;9.778;2024-01-27T15:33:27;8.30;99.90
19552;DHT22;9921;47.186;9.778;2024-01-27T15:35:54;8.30;99.90
19552;DHT22;9921;47.186;9.778;2024-01-27T15:38:21;8.30;99.90
19552;DHT22;9921;47.186;9.778;2024-01-27T15:40:48;8.20;99.90
19552;DHT22;9921;47.186;9.778;2024-01-27T15:43:14;8.30;99.90
19552;DHT22;9921;47.186;9.778;2024-01-27T15:45:41;8.30;99.90
19552;DHT22;9921;47.186;9.778;2024-01-27T15:48:10;8.20;99.90
19552;DHT22;9921;47.186;9.778;2024-01-27T15:50:38;8.10;99.90
19552;DHT22;9921;47.186;9.778;2024-01-27T15:53:05;8.00;99.90
19552;DHT22;9921;47.186;9.778;2024-01-27T15:55:33;7.90;99.90
19552;DHT22;9921;47.186;9.778;2024-01-27T15:58:00;7.80;99.90
19552;DHT22;9921;47.186;9.778;2024-01-27T16:00:27;7.70;99.90